KQA305 OMDB-HKJK
Flight info
| Callsign | KQA305 |
|---|---|
| Flight time | N/A |
| Altitude | 34000 |
| Route | ANVIX R401 GIDIS G783 ELUDA/N0490F400 G783 UKRAG/N0492F390 L710 EMAVA/N0488F410 L710 KUKDI/N0490F400 B400 RIGAM B403 BOMIX UB403 MAV UP312 WAV WAJI1A |
| Aircraft | B788/H-SDE1E2E3FGHIJ2J3J4J5M1RWXYZ/LB1D1 |
Departure
| Time | N/A |
|---|---|
| Airport | Dubai International Airport (OMDB) |
Arrival
| Time | 2026-04-29 15:19 |
|---|---|
| Airport | Jomo Kenyatta International Airport (HKJK) |
| Time | Latitude | Longitude | Altitude | Speed | Heading |
|---|---|---|---|---|---|
| 2026-04-29 14:36 | 1.74681 | 40.08242 | 39000 ft | 500 kts | 224° |
| 2026-04-29 14:36 | 1.73468 | 40.07080 | 38733 ft | 497 kts | 223° |
| 2026-04-29 14:37 | 1.70980 | 40.04675 | 38023 ft | 494 kts | 223° |
| 2026-04-29 14:37 | 1.68558 | 40.02326 | 38039 ft | 474 kts | 223° |
| 2026-04-29 14:37 | 1.66266 | 40.00098 | 38351 ft | 449 kts | 223° |
| 2026-04-29 14:37 | 1.64098 | 39.97991 | 38570 ft | 428 kts | 223° |
| 2026-04-29 14:38 | 1.62001 | 39.95955 | 38700 ft | 411 kts | 223° |
| 2026-04-29 14:38 | 1.59961 | 39.93977 | 38318 ft | 408 kts | 223° |
| 2026-04-29 14:38 | 1.57918 | 39.92002 | 37676 ft | 411 kts | 223° |
| 2026-04-29 14:38 | 1.55874 | 39.90024 | 37417 ft | 404 kts | 223° |
| 2026-04-29 14:39 | 1.53887 | 39.88097 | 37424 ft | 390 kts | 223° |
| 2026-04-29 14:39 | 1.50038 | 39.84369 | 37436 ft | 389 kts | 223° |
| 2026-04-29 14:40 | 1.46089 | 39.80544 | 37513 ft | 399 kts | 223° |
| 2026-04-29 14:40 | 1.42055 | 39.76637 | 37612 ft | 408 kts | 223° |
| 2026-04-29 14:40 | 1.40010 | 39.74656 | 37823 ft | 408 kts | 223° |
| 2026-04-29 14:41 | 1.37972 | 39.72681 | 37967 ft | 411 kts | 223° |
| 2026-04-29 14:41 | 1.35916 | 39.70689 | 38176 ft | 410 kts | 223° |
| 2026-04-29 14:41 | 1.33863 | 39.68700 | 38283 ft | 413 kts | 223° |
| 2026-04-29 14:41 | 1.31824 | 39.66725 | 38506 ft | 412 kts | 223° |
| 2026-04-29 14:42 | 1.29753 | 39.64720 | 38538 ft | 417 kts | 223° |
| 2026-04-29 14:42 | 1.25539 | 39.60638 | 38700 ft | 424 kts | 223° |
| 2026-04-29 14:42 | 1.23421 | 39.58587 | 38809 ft | 426 kts | 223° |
| 2026-04-29 14:43 | 1.21273 | 39.56507 | 38815 ft | 432 kts | 223° |
| 2026-04-29 14:43 | 1.16912 | 39.52284 | 38805 ft | 443 kts | 223° |
| 2026-04-29 14:44 | 1.12423 | 39.47938 | 38800 ft | 453 kts | 223° |
| 2026-04-29 14:44 | 1.07839 | 39.43499 | 38795 ft | 464 kts | 223° |
| 2026-04-29 14:45 | 1.03147 | 39.38955 | 38792 ft | 475 kts | 223° |
| 2026-04-29 14:45 | 0.98351 | 39.34311 | 38793 ft | 486 kts | 223° |
| 2026-04-29 14:46 | 0.93425 | 39.29542 | 38787 ft | 499 kts | 223° |
| 2026-04-29 14:46 | 0.88370 | 39.24648 | 38782 ft | 512 kts | 223° |
| 2026-04-29 14:47 | 0.83265 | 39.19704 | 38779 ft | 515 kts | 223° |
| 2026-04-29 14:47 | 0.78111 | 39.14713 | 38792 ft | 515 kts | 223° |
| 2026-04-29 14:48 | 0.72973 | 39.09739 | 38785 ft | 515 kts | 223° |
| 2026-04-29 14:48 | 0.67803 | 39.04733 | 38781 ft | 515 kts | 223° |
| 2026-04-29 14:49 | 0.62684 | 38.99777 | 38793 ft | 515 kts | 223° |
| 2026-04-29 14:49 | 0.57541 | 38.94798 | 38807 ft | 515 kts | 223° |
| 2026-04-29 14:50 | 0.52392 | 38.89814 | 38814 ft | 515 kts | 223° |
| 2026-04-29 14:50 | 0.47240 | 38.84826 | 38805 ft | 515 kts | 223° |
| 2026-04-29 14:51 | 0.42095 | 38.79846 | 38819 ft | 515 kts | 223° |
| 2026-04-29 14:51 | 0.36939 | 38.74855 | 38825 ft | 515 kts | 223° |
| 2026-04-29 14:52 | 0.31796 | 38.69877 | 38818 ft | 515 kts | 222° |
| 2026-04-29 14:52 | 0.26641 | 38.64887 | 38834 ft | 515 kts | 222° |
| 2026-04-29 14:53 | 0.21522 | 38.59933 | 38847 ft | 515 kts | 222° |
| 2026-04-29 14:53 | 0.16363 | 38.54940 | 38859 ft | 515 kts | 222° |
| 2026-04-29 14:54 | 0.11213 | 38.49955 | 38873 ft | 515 kts | 222° |
| 2026-04-29 14:54 | 0.06060 | 38.44968 | 38897 ft | 515 kts | 222° |
| 2026-04-29 14:55 | 0.00967 | 38.40038 | 38919 ft | 515 kts | 222° |
| 2026-04-29 14:55 | -0.04206 | 38.35031 | 38938 ft | 514 kts | 222° |
| 2026-04-29 14:56 | -0.09349 | 38.30054 | 38955 ft | 514 kts | 222° |
| 2026-04-29 14:56 | -0.14487 | 38.25081 | 38968 ft | 514 kts | 222° |
| 2026-04-29 14:57 | -0.19625 | 38.20108 | 38975 ft | 514 kts | 222° |
| 2026-04-29 14:57 | -0.24737 | 38.15160 | 38969 ft | 514 kts | 222° |
| 2026-04-29 14:58 | -0.29901 | 38.10162 | 38974 ft | 513 kts | 222° |
| 2026-04-29 14:58 | -0.32449 | 38.07696 | 38631 ft | 518 kts | 222° |
| 2026-04-29 14:58 | -0.35071 | 38.05159 | 38274 ft | 517 kts | 223° |
| 2026-04-29 14:58 | -0.37619 | 38.02693 | 37630 ft | 518 kts | 223° |
| 2026-04-29 14:59 | -0.40209 | 38.00186 | 36935 ft | 516 kts | 223° |
| 2026-04-29 14:59 | -0.42778 | 37.97699 | 36212 ft | 515 kts | 223° |
| 2026-04-29 14:59 | -0.45360 | 37.95200 | 35470 ft | 516 kts | 223° |
| 2026-04-29 14:59 | -0.47941 | 37.92701 | 34738 ft | 518 kts | 223° |
| 2026-04-29 15:00 | -0.50541 | 37.90184 | 34020 ft | 521 kts | 223° |
| 2026-04-29 15:00 | -0.53154 | 37.87654 | 33340 ft | 524 kts | 223° |
| 2026-04-29 15:00 | -0.55777 | 37.85114 | 32698 ft | 526 kts | 223° |
| 2026-04-29 15:00 | -0.58406 | 37.82569 | 32055 ft | 527 kts | 223° |
| 2026-04-29 15:01 | -0.61047 | 37.80011 | 31403 ft | 528 kts | 223° |
| 2026-04-29 15:01 | -0.63690 | 37.77452 | 30746 ft | 529 kts | 222° |
| 2026-04-29 15:01 | -0.66332 | 37.74894 | 30087 ft | 529 kts | 222° |
| 2026-04-29 15:01 | -0.69009 | 37.72304 | 29425 ft | 530 kts | 222° |
| 2026-04-29 15:02 | -0.71629 | 37.69769 | 28766 ft | 529 kts | 223° |
| 2026-04-29 15:02 | -0.74268 | 37.67215 | 28105 ft | 525 kts | 223° |
| 2026-04-29 15:02 | -0.76874 | 37.64691 | 27452 ft | 519 kts | 223° |
| 2026-04-29 15:02 | -0.79457 | 37.62190 | 26807 ft | 514 kts | 223° |
| 2026-04-29 15:03 | -0.82019 | 37.59709 | 26167 ft | 508 kts | 223° |
| 2026-04-29 15:03 | -0.84546 | 37.57262 | 25537 ft | 504 kts | 223° |
| 2026-04-29 15:03 | -0.87053 | 37.54834 | 24910 ft | 499 kts | 223° |
| 2026-04-29 15:03 | -0.89538 | 37.52429 | 24291 ft | 495 kts | 224° |
| 2026-04-29 15:04 | -0.91990 | 37.50055 | 23678 ft | 491 kts | 224° |
| 2026-04-29 15:04 | -0.94437 | 37.47684 | 23087 ft | 488 kts | 223° |
| 2026-04-29 15:04 | -0.96870 | 37.45327 | 22506 ft | 484 kts | 223° |
| 2026-04-29 15:04 | -0.99249 | 37.43022 | 21932 ft | 481 kts | 223° |
| 2026-04-29 15:05 | -1.01702 | 37.40652 | 21397 ft | 474 kts | 224° |
| 2026-04-29 15:05 | -1.04015 | 37.38422 | 20819 ft | 462 kts | 225° |
| 2026-04-29 15:05 | -1.06298 | 37.36214 | 20089 ft | 452 kts | 225° |
| 2026-04-29 15:05 | -1.08528 | 37.34054 | 19516 ft | 438 kts | 225° |
| 2026-04-29 15:06 | -1.10694 | 37.31955 | 19033 ft | 429 kts | 226° |
| 2026-04-29 15:06 | -1.12821 | 37.29894 | 18530 ft | 422 kts | 226° |
| 2026-04-29 15:06 | -1.14894 | 37.27884 | 18035 ft | 422 kts | 226° |
| 2026-04-29 15:06 | -1.17026 | 37.25815 | 17515 ft | 422 kts | 226° |
| 2026-04-29 15:07 | -1.19103 | 37.23798 | 16998 ft | 420 kts | 226° |
| 2026-04-29 15:07 | -1.21178 | 37.21786 | 16368 ft | 406 kts | 226° |
| 2026-04-29 15:07 | -1.23175 | 37.19853 | 15885 ft | 383 kts | 225° |
| 2026-04-29 15:07 | -1.25007 | 37.18081 | 15446 ft | 362 kts | 225° |
| 2026-04-29 15:08 | -1.26771 | 37.16373 | 15007 ft | 344 kts | 225° |
| 2026-04-29 15:08 | -1.28371 | 37.14625 | 14598 ft | 332 kts | 232° |
| 2026-04-29 15:08 | -1.29754 | 37.12801 | 14259 ft | 335 kts | 234° |
| 2026-04-29 15:08 | -1.31120 | 37.10922 | 13860 ft | 333 kts | 235° |
| 2026-04-29 15:09 | -1.32480 | 37.09041 | 13487 ft | 326 kts | 235° |
| 2026-04-29 15:09 | -1.33795 | 37.07228 | 13144 ft | 318 kts | 234° |
| 2026-04-29 15:09 | -1.35064 | 37.05484 | 12831 ft | 311 kts | 234° |
| 2026-04-29 15:09 | -1.36336 | 37.03740 | 12590 ft | 301 kts | 234° |
| 2026-04-29 15:10 | -1.37539 | 37.02092 | 12360 ft | 293 kts | 234° |
| 2026-04-29 15:10 | -1.38722 | 37.00472 | 12117 ft | 286 kts | 234° |
| 2026-04-29 15:10 | -1.39881 | 36.98888 | 11847 ft | 277 kts | 234° |
| 2026-04-29 15:10 | -1.41000 | 36.97357 | 11211 ft | 270 kts | 234° |
| 2026-04-29 15:11 | -1.42090 | 36.95866 | 10738 ft | 257 kts | 234° |
| 2026-04-29 15:11 | -1.43101 | 36.94483 | 10654 ft | 236 kts | 234° |
| 2026-04-29 15:11 | -1.43729 | 36.93625 | 10605 ft | 230 kts | 234° |
| 2026-04-29 15:11 | -1.44669 | 36.92341 | 10525 ft | 228 kts | 234° |
| 2026-04-29 15:12 | -1.45902 | 36.90655 | 10404 ft | 221 kts | 234° |
| 2026-04-29 15:12 | -1.46499 | 36.89838 | 10330 ft | 219 kts | 234° |
| 2026-04-29 15:12 | -1.47381 | 36.88632 | 10280 ft | 208 kts | 234° |
| 2026-04-29 15:12 | -1.48223 | 36.87482 | 10178 ft | 204 kts | 234° |
| 2026-04-29 15:13 | -1.49056 | 36.86343 | 9980 ft | 201 kts | 234° |
| 2026-04-29 15:13 | -1.49875 | 36.85224 | 9745 ft | 199 kts | 234° |
| 2026-04-29 15:13 | -1.50501 | 36.83997 | 9299 ft | 204 kts | 251° |
| 2026-04-29 15:13 | -1.50353 | 36.82645 | 8936 ft | 205 kts | 284° |
| 2026-04-29 15:14 | -1.49424 | 36.81583 | 8757 ft | 208 kts | 318° |
| 2026-04-29 15:14 | -1.48057 | 36.81156 | 8756 ft | 202 kts | 343° |
| 2026-04-29 15:14 | -1.46712 | 36.80922 | 8778 ft | 195 kts | 347° |
| 2026-04-29 15:14 | -1.45362 | 36.80796 | 8633 ft | 194 kts | 352° |
| 2026-04-29 15:15 | -1.44055 | 36.80943 | 8345 ft | 199 kts | 8° |
| 2026-04-29 15:15 | -1.42800 | 36.81437 | 8173 ft | 192 kts | 19° |
| 2026-04-29 15:15 | -1.41579 | 36.81925 | 7961 ft | 188 kts | 19° |
| 2026-04-29 15:15 | -1.40382 | 36.82448 | 7717 ft | 187 kts | 21° |
| 2026-04-29 15:16 | -1.39219 | 36.83005 | 7477 ft | 183 kts | 24° |
| 2026-04-29 15:16 | -1.38301 | 36.83853 | 7075 ft | 183 kts | 49° |
| 2026-04-29 15:16 | -1.37586 | 36.84823 | 6950 ft | 171 kts | 49° |
| 2026-04-29 15:16 | -1.36908 | 36.85813 | 6667 ft | 175 kts | 54° |
| 2026-04-29 15:17 | -1.36233 | 36.86827 | 6296 ft | 178 kts | 54° |
| 2026-04-29 15:17 | -1.35509 | 36.87837 | 6064 ft | 178 kts | 53° |
| 2026-04-29 15:17 | -1.34805 | 36.88828 | 5908 ft | 173 kts | 52° |
| 2026-04-29 15:17 | -1.34114 | 36.89788 | 5728 ft | 167 kts | 50° |
| 2026-04-29 15:18 | -1.33431 | 36.90730 | 5526 ft | 165 kts | 50° |
| 2026-04-29 15:18 | -1.32760 | 36.91644 | 5372 ft | 159 kts | 49° |
| 2026-04-29 15:18 | -1.32181 | 36.92387 | 5344 ft | 122 kts | 64° |
| 2026-04-29 15:18 | -1.31762 | 36.92978 | 5341 ft | 83 kts | 58° |
| 2026-04-29 15:19 | -1.31575 | 36.93256 | 5341 ft | 7 kts | 53° |
| 2026-04-29 15:19 | -1.31563 | 36.93278 | 5341 ft | 2 kts | 81° |
| 2026-04-29 15:19 | -1.31563 | 36.93294 | 5341 ft | 2 kts | 95° |
| 2026-04-29 15:19 | -1.31572 | 36.93320 | 5341 ft | 5 kts | 117° |
| 2026-04-29 15:20 | -1.31601 | 36.93354 | 5341 ft | 8 kts | 140° |
| 2026-04-29 15:20 | -1.31656 | 36.93395 | 5341 ft | 12 kts | 144° |
| 2026-04-29 15:20 | -1.31718 | 36.93440 | 5341 ft | 13 kts | 144° |
| 2026-04-29 15:20 | -1.31761 | 36.93472 | 5341 ft | 0 kts | 144° |
| 2026-04-29 15:21 | -1.31775 | 36.93481 | 5341 ft | 4 kts | 149° |
| 2026-04-29 15:21 | -1.31798 | 36.93484 | 5341 ft | 3 kts | 189° |
| 2026-04-29 15:21 | -1.31819 | 36.93475 | 5341 ft | 4 kts | 211° |
| 2026-04-29 15:22 | -1.31845 | 36.93450 | 5341 ft | 6 kts | 229° |
| 2026-04-29 15:22 | -1.31872 | 36.93414 | 5341 ft | 7 kts | 233° |
| 2026-04-29 15:22 | -1.31902 | 36.93373 | 5341 ft | 8 kts | 233° |
| 2026-04-29 15:22 | -1.31934 | 36.93330 | 5341 ft | 8 kts | 233° |
| 2026-04-29 15:23 | -1.31963 | 36.93290 | 5341 ft | 0 kts | 234° |
| 2026-04-29 15:23 | -1.31964 | 36.93289 | 5341 ft | 1 kts | 234° |
| 2026-04-29 15:23 | -1.31971 | 36.93279 | 5341 ft | 3 kts | 234° |
| 2026-04-29 15:24 | -1.31986 | 36.93259 | 5341 ft | 4 kts | 234° |
| 2026-04-29 15:24 | -1.32007 | 36.93229 | 5341 ft | 6 kts | 234° |
| 2026-04-29 15:24 | -1.32032 | 36.93194 | 5341 ft | 7 kts | 234° |
| 2026-04-29 15:24 | -1.32062 | 36.93154 | 5341 ft | 8 kts | 234° |
| 2026-04-29 15:25 | -1.32094 | 36.93109 | 5341 ft | 8 kts | 234° |
| 2026-04-29 15:25 | -1.32125 | 36.93067 | 5341 ft | 6 kts | 234° |
| 2026-04-29 15:25 | -1.32150 | 36.93032 | 5341 ft | 7 kts | 233° |
| 2026-04-29 15:25 | -1.32157 | 36.93023 | 5341 ft | 0 kts | 233° |
| 2026-04-29 15:28 | -1.32159 | 36.93019 | 5341 ft | 2 kts | 233° |
| 2026-04-29 15:28 | -1.32166 | 36.93011 | 5341 ft | 3 kts | 233° |
| 2026-04-29 15:28 | -1.32189 | 36.92980 | 5341 ft | 5 kts | 233° |
| 2026-04-29 15:28 | -1.32213 | 36.92947 | 5341 ft | 6 kts | 233° |
| 2026-04-29 15:29 | -1.32235 | 36.92915 | 5341 ft | 6 kts | 234° |
| 2026-04-29 15:29 | -1.32290 | 36.92839 | 5341 ft | 8 kts | 234° |
| 2026-04-29 15:30 | -1.32359 | 36.92745 | 5341 ft | 9 kts | 234° |
| 2026-04-29 15:30 | -1.32396 | 36.92694 | 5341 ft | 9 kts | 234° |
| 2026-04-29 15:30 | -1.32435 | 36.92640 | 5341 ft | 10 kts | 234° |
| 2026-04-29 15:30 | -1.32474 | 36.92587 | 5341 ft | 9 kts | 234° |
| 2026-04-29 15:31 | -1.32511 | 36.92535 | 5341 ft | 8 kts | 234° |
| 2026-04-29 15:31 | -1.32544 | 36.92490 | 5341 ft | 8 kts | 234° |
| 2026-04-29 15:31 | -1.32579 | 36.92441 | 5341 ft | 9 kts | 234° |
| 2026-04-29 15:31 | -1.32605 | 36.92406 | 5341 ft | 5 kts | 234° |
| 2026-04-29 15:32 | -1.32616 | 36.92390 | 5341 ft | 0 kts | 234° |
| 2026-04-29 15:32 | -1.32617 | 36.92390 | 5341 ft | 0 kts | 234° |
| 2026-04-29 15:32 | -1.32623 | 36.92382 | 5341 ft | 3 kts | 234° |
| 2026-04-29 15:33 | -1.32636 | 36.92367 | 5341 ft | 2 kts | 218° |
| 2026-04-29 15:33 | -1.32653 | 36.92358 | 5341 ft | 3 kts | 198° |
| 2026-04-29 15:33 | -1.32676 | 36.92357 | 5341 ft | 4 kts | 171° |
| 2026-04-29 15:33 | -1.32712 | 36.92372 | 5341 ft | 6 kts | 150° |
| 2026-04-29 15:34 | -1.32724 | 36.92379 | 5341 ft | 7 kts | 151° |
| 2026-04-29 15:35 | -1.32800 | 36.92359 | 5341 ft | 0 kts | 227° |
| 2026-04-29 15:36 | -1.32806 | 36.92352 | 5341 ft | 3 kts | 228° |
| 2026-04-29 15:36 | -1.32822 | 36.92333 | 5341 ft | 5 kts | 230° |
| 2026-04-29 15:36 | -1.32843 | 36.92308 | 5341 ft | 5 kts | 227° |
| 2026-04-29 15:36 | -1.32873 | 36.92280 | 5341 ft | 7 kts | 219° |
| 2026-04-29 15:37 | -1.32915 | 36.92252 | 5341 ft | 8 kts | 208° |
| 2026-04-29 15:37 | -1.32969 | 36.92230 | 5341 ft | 9 kts | 197° |
| 2026-04-29 15:37 | -1.33032 | 36.92218 | 5341 ft | 9 kts | 184° |
| 2026-04-29 15:37 | -1.33093 | 36.92221 | 5341 ft | 6 kts | 171° |
| 2026-04-29 15:38 | -1.33107 | 36.92224 | 5341 ft | 3 kts | 161° |
| 2026-04-29 15:38 | -1.33112 | 36.92230 | 5341 ft | 1 kts | 125° |
| 2026-04-29 15:38 | -1.33115 | 36.92236 | 5341 ft | 1 kts | 109° |
| 2026-04-29 15:38 | -1.33116 | 36.92243 | 5341 ft | 2 kts | 101° |
| 2026-04-29 15:39 | -1.33118 | 36.92259 | 5341 ft | 2 kts | 92° |
| 2026-04-29 15:39 | -1.33115 | 36.92278 | 5341 ft | 4 kts | 78° |
| 2026-04-29 15:39 | -1.33111 | 36.92296 | 5341 ft | 3 kts | 77° |
| 2026-04-29 15:39 | -1.33109 | 36.92306 | 5341 ft | 0 kts | 77° |
| 2026-04-29 15:40 | -1.33108 | 36.92310 | 5341 ft | 0 kts | 77° |
| 2026-04-29 15:40 | -1.33108 | 36.92311 | 5341 ft | 0 kts | 77° |
| 2026-04-29 15:40 | -1.33108 | 36.92312 | 5341 ft | 0 kts | 77° |